sensor_id;sensor_type;location;lat;lon;timestamp;pressure;altitude;pressure_sealevel;temperature;humidity
50364;BME280;36272;59.400;17.982;2022-07-06T00:01:27;100980.78;;;17.07;68.75
50364;BME280;36272;59.400;17.982;2022-07-06T00:06:29;100984.28;;;17.02;69.02
50364;BME280;36272;59.400;17.982;2022-07-06T00:11:31;100973.72;;;17.01;68.89
50364;BME280;36272;59.400;17.982;2022-07-06T00:16:33;100973.69;;;16.95;69.29
50364;BME280;36272;59.400;17.982;2022-07-06T00:21:34;100975.81;;;16.93;69.55
50364;BME280;36272;59.400;17.982;2022-07-06T00:26:36;100976.88;;;16.92;69.59
50364;BME280;36272;59.400;17.982;2022-07-06T00:31:37;100974.91;;;16.83;69.98
50364;BME280;36272;59.400;17.982;2022-07-06T00:36:39;100968.13;;;16.80;70.10
50364;BME280;36272;59.400;17.982;2022-07-06T00:41:41;100960.50;;;16.72;70.30
50364;BME280;36272;59.400;17.982;2022-07-06T00:46:47;100947.53;;;16.69;70.58
50364;BME280;36272;59.400;17.982;2022-07-06T00:51:49;100962.03;;;16.62;70.86
50364;BME280;36272;59.400;17.982;2022-07-06T00:56:51;100957.44;;;16.58;71.16
50364;BME280;36272;59.400;17.982;2022-07-06T01:01:52;100959.28;;;16.52;71.53
50364;BME280;36272;59.400;17.982;2022-07-06T01:06:55;100944.66;;;16.48;71.46
50364;BME280;36272;59.400;17.982;2022-07-06T01:11:58;100963.50;;;16.43;71.77
50364;BME280;36272;59.400;17.982;2022-07-06T01:17:00;100957.22;;;16.37;71.88
50364;BME280;36272;59.400;17.982;2022-07-06T01:22:02;100955.00;;;16.29;72.29
50364;BME280;36272;59.400;17.982;2022-07-06T01:27:04;100939.00;;;16.22;72.50
50364;BME280;36272;59.400;17.982;2022-07-06T01:32:06;100949.78;;;16.22;72.88
50364;BME280;36272;59.400;17.982;2022-07-06T01:37:08;100954.63;;;16.20;72.86
50364;BME280;36272;59.400;17.982;2022-07-06T01:42:09;100956.75;;;16.18;72.84
50364;BME280;36272;59.400;17.982;2022-07-06T01:47:11;100959.47;;;16.18;73.20
50364;BME280;36272;59.400;17.982;2022-07-06T01:52:13;100948.66;;;16.18;73.28
50364;BME280;36272;59.400;17.982;2022-07-06T01:57:15;100952.69;;;16.15;73.59
50364;BME280;36272;59.400;17.982;2022-07-06T02:02:16;100945.69;;;16.14;73.38
50364;BME280;36272;59.400;17.982;2022-07-06T02:07:18;100941.91;;;16.15;73.36
50364;BME280;36272;59.400;17.982;2022-07-06T02:12:20;100955.41;;;16.15;73.75
50364;BME280;36272;59.400;17.982;2022-07-06T02:17:22;100949.16;;;16.15;73.71
50364;BME280;36272;59.400;17.982;2022-07-06T02:22:24;100950.78;;;16.11;73.81
50364;BME280;36272;59.400;17.982;2022-07-06T02:27:25;100948.59;;;16.08;73.99
50364;BME280;36272;59.400;17.982;2022-07-06T02:32:27;100942.06;;;16.03;74.00
50364;BME280;36272;59.400;17.982;2022-07-06T02:37:29;100935.59;;;16.04;73.93
50364;BME280;36272;59.400;17.982;2022-07-06T02:42:31;100935.78;;;15.98;74.36
50364;BME280;36272;59.400;17.982;2022-07-06T02:47:32;100943.56;;;15.94;74.78
50364;BME280;36272;59.400;17.982;2022-07-06T02:52:34;100937.34;;;15.94;74.76
50364;BME280;36272;59.400;17.982;2022-07-06T02:57:36;100935.97;;;15.91;74.83
50364;BME280;36272;59.400;17.982;2022-07-06T03:02:37;100942.44;;;15.90;74.98
50364;BME280;36272;59.400;17.982;2022-07-06T03:07:39;100931.66;;;15.90;75.24
50364;BME280;36272;59.400;17.982;2022-07-06T03:12:41;100936.56;;;15.93;75.11
50364;BME280;36272;59.400;17.982;2022-07-06T03:17:42;100938.19;;;15.94;75.25
50364;BME280;36272;59.400;17.982;2022-07-06T03:22:44;100946.28;;;15.94;75.54
50364;BME280;36272;59.400;17.982;2022-07-06T03:27:45;100947.63;;;15.97;75.32
50364;BME280;36272;59.400;17.982;2022-07-06T03:32:47;100935.78;;;15.98;75.30
50364;BME280;36272;59.400;17.982;2022-07-06T03:37:49;100939.31;;;15.98;75.65
50364;BME280;36272;59.400;17.982;2022-07-06T03:42:50;100936.03;;;15.96;75.79
50364;BME280;36272;59.400;17.982;2022-07-06T03:47:52;100940.38;;;15.97;75.77
50364;BME280;36272;59.400;17.982;2022-07-06T03:52:53;100939.81;;;15.95;75.94
50364;BME280;36272;59.400;17.982;2022-07-06T03:57:55;100942.50;;;15.95;76.12
50364;BME280;36272;59.400;17.982;2022-07-06T04:02:58;100934.66;;;15.94;76.44
50364;BME280;36272;59.400;17.982;2022-07-06T04:08:00;100926.81;;;15.92;76.69
50364;BME280;36272;59.400;17.982;2022-07-06T04:13:01;100929.53;;;15.92;76.85
50364;BME280;36272;59.400;17.982;2022-07-06T04:18:03;100929.53;;;15.92;77.13
50364;BME280;36272;59.400;17.982;2022-07-06T04:23:05;100932.91;;;16.04;76.95
50364;BME280;36272;59.400;17.982;2022-07-06T04:28:07;100928.66;;;16.14;76.94
50364;BME280;36272;59.400;17.982;2022-07-06T04:33:08;100938.31;;;16.32;76.79
50364;BME280;36272;59.400;17.982;2022-07-06T04:38:10;100937.56;;;16.42;76.51
50364;BME280;36272;59.400;17.982;2022-07-06T04:43:12;100934.16;;;16.52;76.70
50364;BME280;36272;59.400;17.982;2022-07-06T04:48:14;100932.94;;;16.70;76.56
50364;BME280;36272;59.400;17.982;2022-07-06T04:53:15;100930.38;;;16.85;76.32
50364;BME280;36272;59.400;17.982;2022-07-06T04:58:17;100933.66;;;16.92;76.44
50364;BME280;36272;59.400;17.982;2022-07-06T05:03:18;100929.41;;;17.02;76.26
50364;BME280;36272;59.400;17.982;2022-07-06T05:08:20;100927.94;;;17.21;76.16
50364;BME280;36272;59.400;17.982;2022-07-06T05:13:22;100930.16;;;17.35;75.52
50364;BME280;36272;59.400;17.982;2022-07-06T05:18:24;100921.28;;;17.45;75.06
50364;BME280;36272;59.400;17.982;2022-07-06T05:23:26;100914.81;;;17.46;75.01
50364;BME280;36272;59.400;17.982;2022-07-06T05:28:31;100918.31;;;17.46;74.91
50364;BME280;36272;59.400;17.982;2022-07-06T05:33:33;100910.22;;;17.51;74.90
50364;BME280;36272;59.400;17.982;2022-07-06T05:38:35;100902.13;;;17.57;74.98
50364;BME280;36272;59.400;17.982;2022-07-06T05:43:36;100910.31;;;17.72;74.61
50364;BME280;36272;59.400;17.982;2022-07-06T05:48:38;100903.84;;;17.89;74.83
50364;BME280;36272;59.400;17.982;2022-07-06T05:54:09;100919.88;;;18.11;74.33
50364;BME280;36272;59.400;17.982;2022-07-06T05:59:11;100912.63;;;18.27;73.87
50364;BME280;36272;59.400;17.982;2022-07-06T06:04:13;100912.06;;;18.35;73.52
50364;BME280;36272;59.400;17.982;2022-07-06T06:09:14;100914.78;;;18.46;73.53
50364;BME280;36272;59.400;17.982;2022-07-06T06:14:16;100901.81;;;18.53;73.26
50364;BME280;36272;59.400;17.982;2022-07-06T06:19:18;100911.28;;;18.66;72.98
50364;BME280;36272;59.400;17.982;2022-07-06T06:24:19;100909.09;;;18.73;72.68
50364;BME280;36272;59.400;17.982;2022-07-06T06:29:23;100904.22;;;18.75;72.49
50364;BME280;36272;59.400;17.982;2022-07-06T06:34:25;100909.09;;;18.78;72.28
50364;BME280;36272;59.400;17.982;2022-07-06T06:39:30;100900.13;;;18.83;72.38
50364;BME280;36272;59.400;17.982;2022-07-06T06:44:34;100904.22;;;18.91;72.01
50364;BME280;36272;59.400;17.982;2022-07-06T06:49:35;100905.81;;;19.07;71.92
50364;BME280;36272;59.400;17.982;2022-07-06T06:54:37;100900.13;;;19.19;71.21
50364;BME280;36272;59.400;17.982;2022-07-06T06:59:38;100910.66;;;19.21;71.44
50364;BME280;36272;59.400;17.982;2022-07-06T07:04:40;100903.88;;;19.23;70.99
50364;BME280;36272;59.400;17.982;2022-07-06T07:09:42;100914.22;;;19.16;70.75
50364;BME280;36272;59.400;17.982;2022-07-06T07:14:44;100893.63;;;19.10;70.88
50364;BME280;36272;59.400;17.982;2022-07-06T07:19:45;100889.84;;;19.11;70.90
50364;BME280;36272;59.400;17.982;2022-07-06T07:24:47;100894.16;;;19.17;70.35
50364;BME280;36272;59.400;17.982;2022-07-06T07:30:02;100877.38;;;19.10;70.84
50364;BME280;36272;59.400;17.982;2022-07-06T07:35:04;100886.84;;;19.12;70.82
50364;BME280;36272;59.400;17.982;2022-07-06T07:40:06;100881.13;;;19.19;70.37
50364;BME280;36272;59.400;17.982;2022-07-06T07:45:21;100879.75;;;19.22;69.95
50364;BME280;36272;59.400;17.982;2022-07-06T07:50:23;100887.88;;;19.27;69.61
50364;BME280;36272;59.400;17.982;2022-07-06T07:55:27;100893.28;;;19.32;69.34
50364;BME280;36272;59.400;17.982;2022-07-06T08:00:29;100893.50;;;19.41;69.18
50364;BME280;36272;59.400;17.982;2022-07-06T08:05:30;100885.34;;;19.51;68.73
50364;BME280;36272;59.400;17.982;2022-07-06T08:10:32;100877.69;;;19.64;67.48
50364;BME280;36272;59.400;17.982;2022-07-06T08:15:34;100879.25;;;19.70;67.44
50364;BME280;36272;59.400;17.982;2022-07-06T08:20:37;100874.34;;;19.77;66.31
50364;BME280;36272;59.400;17.982;2022-07-06T08:25:38;100885.72;;;19.84;66.16
50364;BME280;36272;59.400;17.982;2022-07-06T08:30:40;100889.22;;;19.90;65.70
50364;BME280;36272;59.400;17.982;2022-07-06T08:35:44;100877.50;;;20.00;64.92
50364;BME280;36272;59.400;17.982;2022-07-06T08:41:15;100862.22;;;20.09;64.99
50364;BME280;36272;59.400;17.982;2022-07-06T08:46:28;100875.75;;;20.14;64.81
50364;BME280;36272;59.400;17.982;2022-07-06T08:51:31;100858.88;;;20.23;64.48
50364;BME280;36272;59.400;17.982;2022-07-06T08:56:37;100858.78;;;20.33;64.56
50364;BME280;36272;59.400;17.982;2022-07-06T09:01:39;100869.19;;;20.55;64.49
50364;BME280;36272;59.400;17.982;2022-07-06T09:06:43;100850.66;;;20.62;63.15
50364;BME280;36272;59.400;17.982;2022-07-06T09:11:47;100871.25;;;20.69;63.10
50364;BME280;36272;59.400;17.982;2022-07-06T09:17:02;100846.44;;;20.80;62.46
50364;BME280;36272;59.400;17.982;2022-07-06T09:22:05;100860.22;;;20.84;61.14
50364;BME280;36272;59.400;17.982;2022-07-06T09:27:16;100850.25;;;20.79;60.54
50364;BME280;36272;59.400;17.982;2022-07-06T09:32:20;100843.66;;;20.86;60.65
50364;BME280;36272;59.400;17.982;2022-07-06T09:37:22;100853.25;;;21.02;61.35
50364;BME280;36272;59.400;17.982;2022-07-06T09:42:28;100847.94;;;21.16;61.13
50364;BME280;36272;59.400;17.982;2022-07-06T09:47:31;100850.22;;;21.28;60.76
50364;BME280;36272;59.400;17.982;2022-07-06T09:52:35;100852.66;;;21.30;59.37
50364;BME280;36272;59.400;17.982;2022-07-06T09:57:37;100855.31;;;21.35;59.96
50364;BME280;36272;59.400;17.982;2022-07-06T10:02:39;100844.50;;;21.49;59.49
50364;BME280;36272;59.400;17.982;2022-07-06T10:07:42;100837.91;;;21.55;59.26
50364;BME280;36272;59.400;17.982;2022-07-06T10:12:44;100840.44;;;21.71;59.26
50364;BME280;36272;59.400;17.982;2022-07-06T10:17:51;100840.50;;;21.84;58.93
50364;BME280;36272;59.400;17.982;2022-07-06T10:22:54;100835.25;;;22.07;58.93
50364;BME280;36272;59.400;17.982;2022-07-06T10:27:56;100840.44;;;22.23;58.26
50364;BME280;36272;59.400;17.982;2022-07-06T10:32:58;100832.81;;;22.39;58.00
50364;BME280;36272;59.400;17.982;2022-07-06T10:38:07;100830.25;;;22.48;58.08
50364;BME280;36272;59.400;17.982;2022-07-06T10:43:11;100829.84;;;22.54;57.20
50364;BME280;36272;59.400;17.982;2022-07-06T10:53:49;100843.41;;;22.73;56.04
50364;BME280;36272;59.400;17.982;2022-07-06T10:58:56;100845.13;;;22.83;55.93
50364;BME280;36272;59.400;17.982;2022-07-06T11:09:06;100818.97;;;22.82;55.98
50364;BME280;36272;59.400;17.982;2022-07-06T11:14:17;100813.00;;;23.08;56.17
50364;BME280;36272;59.400;17.982;2022-07-06T11:19:23;100800.69;;;23.61;53.96
50364;BME280;36272;59.400;17.982;2022-07-06T11:24:32;100815.94;;;24.62;52.93
50364;BME280;36272;59.400;17.982;2022-07-06T11:29:35;100806.19;;;25.90;51.06
50364;BME280;36272;59.400;17.982;2022-07-06T11:40:44;100802.72;;;27.78;48.28
50364;BME280;36272;59.400;17.982;2022-07-06T11:45:48;100809.06;;;27.27;49.03
50364;BME280;36272;59.400;17.982;2022-07-06T11:51:28;100796.84;;;27.67;48.68
50364;BME280;36272;59.400;17.982;2022-07-06T12:02:34;100798.16;;;27.40;47.95
50364;BME280;36272;59.400;17.982;2022-07-06T12:07:39;100805.50;;;27.90;46.58
50364;BME280;36272;59.400;17.982;2022-07-06T12:12:40;100789.59;;;28.30;45.94
50364;BME280;36272;59.400;17.982;2022-07-06T12:17:47;100782.09;;;28.76;44.68
50364;BME280;36272;59.400;17.982;2022-07-06T12:22:49;100790.53;;;28.96;44.53
50364;BME280;36272;59.400;17.982;2022-07-06T12:27:51;100802.41;;;29.25;45.04
50364;BME280;36272;59.400;17.982;2022-07-06T12:33:14;100794.19;;;29.13;43.79
50364;BME280;36272;59.400;17.982;2022-07-06T12:38:26;100794.91;;;28.47;44.14
50364;BME280;36272;59.400;17.982;2022-07-06T12:43:36;100778.81;;;27.91;44.56
50364;BME280;36272;59.400;17.982;2022-07-06T12:48:57;100792.41;;;27.75;44.96
50364;BME280;36272;59.400;17.982;2022-07-06T12:54:12;100778.66;;;27.75;45.70
50364;BME280;36272;59.400;17.982;2022-07-06T12:59:44;100778.28;;;28.69;44.73
50364;BME280;36272;59.400;17.982;2022-07-06T13:10:32;100782.03;;;30.60;42.24
50364;BME280;36272;59.400;17.982;2022-07-06T13:15:37;100773.13;;;30.18;42.11
50364;BME280;36272;59.400;17.982;2022-07-06T13:20:39;100776.59;;;29.42;42.42
50364;BME280;36272;59.400;17.982;2022-07-06T13:25:40;100797.28;;;28.24;44.30
50364;BME280;36272;59.400;17.982;2022-07-06T13:30:44;100818.25;;;26.71;49.30
50364;BME280;36272;59.400;17.982;2022-07-06T13:35:46;100789.50;;;25.56;52.45
50364;BME280;36272;59.400;17.982;2022-07-06T13:40:48;100808.28;;;25.14;55.65
50364;BME280;36272;59.400;17.982;2022-07-06T13:45:49;100807.72;;;24.94;55.63
50364;BME280;36272;59.400;17.982;2022-07-06T13:51:24;100798.91;;;24.65;54.60
50364;BME280;36272;59.400;17.982;2022-07-06T13:56:37;100785.09;;;24.71;54.36
50364;BME280;36272;59.400;17.982;2022-07-06T14:01:39;100782.13;;;24.81;54.68
50364;BME280;36272;59.400;17.982;2022-07-06T14:06:40;100778.81;;;25.98;54.95
50364;BME280;36272;59.400;17.982;2022-07-06T14:11:45;100767.41;;;27.55;51.07
50364;BME280;36272;59.400;17.982;2022-07-06T14:16:49;100764.06;;;27.83;48.91
50364;BME280;36272;59.400;17.982;2022-07-06T14:22:17;100752.22;;;28.16;48.34
50364;BME280;36272;59.400;17.982;2022-07-06T14:27:21;100751.13;;;27.96;46.93
50364;BME280;36272;59.400;17.982;2022-07-06T14:32:46;100750.81;;;27.98;46.41
50364;BME280;36272;59.400;17.982;2022-07-06T14:37:48;100751.94;;;28.68;45.62
50364;BME280;36272;59.400;17.982;2022-07-06T14:42:59;100733.00;;;29.60;43.79
50364;BME280;36272;59.400;17.982;2022-07-06T14:48:01;100731.50;;;30.23;43.00
50364;BME280;36272;59.400;17.982;2022-07-06T14:53:05;100711.56;;;30.82;41.79
50364;BME280;36272;59.400;17.982;2022-07-06T14:58:09;100726.81;;;30.95;41.47
50364;BME280;36272;59.400;17.982;2022-07-06T15:03:22;100725.50;;;30.69;41.68
50364;BME280;36272;59.400;17.982;2022-07-06T15:08:27;100741.28;;;29.60;43.39
50364;BME280;36272;59.400;17.982;2022-07-06T15:13:29;100727.56;;;29.07;43.33
50364;BME280;36272;59.400;17.982;2022-07-06T15:18:31;100720.56;;;29.09;44.00
50364;BME280;36272;59.400;17.982;2022-07-06T15:23:33;100726.22;;;29.01;45.18
50364;BME280;36272;59.400;17.982;2022-07-06T15:28:42;100714.91;;;28.77;44.71
50364;BME280;36272;59.400;17.982;2022-07-06T15:33:46;100720.66;;;28.47;45.15
50364;BME280;36272;59.400;17.982;2022-07-06T15:38:48;100724.69;;;27.92;45.89
50364;BME280;36272;59.400;17.982;2022-07-06T15:43:59;100714.53;;;27.58;47.35
50364;BME280;36272;59.400;17.982;2022-07-06T15:49:03;100735.53;;;27.75;46.46
50364;BME280;36272;59.400;17.982;2022-07-06T15:54:05;100729.31;;;27.66;47.54
50364;BME280;36272;59.400;17.982;2022-07-06T15:59:07;100715.00;;;27.39;47.78
50364;BME280;36272;59.400;17.982;2022-07-06T16:04:08;100728.22;;;27.04;47.89
50364;BME280;36272;59.400;17.982;2022-07-06T16:09:12;100724.66;;;26.82;47.91
50364;BME280;36272;59.400;17.982;2022-07-06T16:14:13;100723.97;;;26.55;48.40
50364;BME280;36272;59.400;17.982;2022-07-06T16:19:15;100717.19;;;26.61;48.27
50364;BME280;36272;59.400;17.982;2022-07-06T16:24:17;100714.25;;;26.66;48.32
50364;BME280;36272;59.400;17.982;2022-07-06T16:29:18;100709.72;;;26.62;48.55
50364;BME280;36272;59.400;17.982;2022-07-06T16:34:20;100705.91;;;26.54;48.36
50364;BME280;36272;59.400;17.982;2022-07-06T16:39:27;100693.34;;;26.23;48.51
50364;BME280;36272;59.400;17.982;2022-07-06T16:44:29;100711.75;;;26.05;48.99
50364;BME280;36272;59.400;17.982;2022-07-06T16:49:31;100703.72;;;26.00;49.79
50364;BME280;36272;59.400;17.982;2022-07-06T16:54:32;100704.03;;;25.98;50.50
50364;BME280;36272;59.400;17.982;2022-07-06T16:59:34;100698.25;;;25.91;50.18
50364;BME280;36272;59.400;17.982;2022-07-06T17:04:36;100691.81;;;25.87;50.40
50364;BME280;36272;59.400;17.982;2022-07-06T17:09:37;100696.03;;;25.84;50.45
50364;BME280;36272;59.400;17.982;2022-07-06T17:14:39;100703.00;;;25.64;50.31
50364;BME280;36272;59.400;17.982;2022-07-06T17:19:45;100704.97;;;25.46;50.65
50364;BME280;36272;59.400;17.982;2022-07-06T17:24:47;100704.94;;;25.28;51.13
50364;BME280;36272;59.400;17.982;2022-07-06T17:29:49;100703.50;;;25.13;52.07
50364;BME280;36272;59.400;17.982;2022-07-06T17:34:50;100698.50;;;25.06;52.11
50364;BME280;36272;59.400;17.982;2022-07-06T17:39:52;100695.25;;;24.95;52.66
50364;BME280;36272;59.400;17.982;2022-07-06T17:44:56;100697.03;;;24.83;53.13
50364;BME280;36272;59.400;17.982;2022-07-06T17:50:13;100671.75;;;24.68;53.45
50364;BME280;36272;59.400;17.982;2022-07-06T17:55:15;100682.16;;;24.57;53.86
50364;BME280;36272;59.400;17.982;2022-07-06T18:00:16;100685.63;;;24.40;53.64
50364;BME280;36272;59.400;17.982;2022-07-06T18:05:18;100684.81;;;24.31;54.17
50364;BME280;36272;59.400;17.982;2022-07-06T18:10:21;100672.09;;;24.26;54.73
50364;BME280;36272;59.400;17.982;2022-07-06T18:15:22;100676.72;;;24.17;54.83
50364;BME280;36272;59.400;17.982;2022-07-06T18:20:24;100675.94;;;23.94;55.14
50364;BME280;36272;59.400;17.982;2022-07-06T18:25:26;100676.88;;;23.80;55.66
50364;BME280;36272;59.400;17.982;2022-07-06T18:30:27;100676.66;;;23.76;55.94
50364;BME280;36272;59.400;17.982;2022-07-06T18:35:29;100671.78;;;23.65;55.54
50364;BME280;36272;59.400;17.982;2022-07-06T18:40:31;100669.63;;;23.53;55.93
50364;BME280;36272;59.400;17.982;2022-07-06T18:45:33;100668.25;;;23.41;56.13
50364;BME280;36272;59.400;17.982;2022-07-06T18:50:34;100667.72;;;23.30;56.19
50364;BME280;36272;59.400;17.982;2022-07-06T18:55:36;100658.63;;;23.21;56.41
50364;BME280;36272;59.400;17.982;2022-07-06T19:00:38;100661.91;;;23.09;56.57
50364;BME280;36272;59.400;17.982;2022-07-06T19:05:41;100660.19;;;22.99;56.22
50364;BME280;36272;59.400;17.982;2022-07-06T19:10:43;100661.25;;;22.90;56.50
50364;BME280;36272;59.400;17.982;2022-07-06T19:15:47;100662.06;;;22.76;56.25
50364;BME280;36272;59.400;17.982;2022-07-06T19:20:48;100663.03;;;22.57;56.06
50364;BME280;36272;59.400;17.982;2022-07-06T19:25:50;100677.47;;;22.44;55.61
50364;BME280;36272;59.400;17.982;2022-07-06T19:30:53;100660.91;;;22.26;55.14
50364;BME280;36272;59.400;17.982;2022-07-06T19:35:59;100658.06;;;22.18;54.74
50364;BME280;36272;59.400;17.982;2022-07-06T19:41:01;100668.84;;;22.09;53.60
50364;BME280;36272;59.400;17.982;2022-07-06T19:46:04;100661.28;;;21.92;53.57
50364;BME280;36272;59.400;17.982;2022-07-06T19:51:05;100679.78;;;21.76;52.83
50364;BME280;36272;59.400;17.982;2022-07-06T19:56:19;100662.03;;;21.64;53.13
50364;BME280;36272;59.400;17.982;2022-07-06T20:01:24;100672.84;;;21.50;52.54
50364;BME280;36272;59.400;17.982;2022-07-06T20:06:29;100667.34;;;21.36;52.38
50364;BME280;36272;59.400;17.982;2022-07-06T20:11:36;100671.59;;;21.23;52.02
50364;BME280;36272;59.400;17.982;2022-07-06T20:16:37;100674.50;;;21.13;51.83
50364;BME280;36272;59.400;17.982;2022-07-06T20:21:41;100675.44;;;21.03;51.76
50364;BME280;36272;59.400;17.982;2022-07-06T20:26:43;100669.34;;;20.92;51.57
50364;BME280;36272;59.400;17.982;2022-07-06T20:31:48;100672.19;;;20.82;51.57
50364;BME280;36272;59.400;17.982;2022-07-06T20:36:53;100661.72;;;20.70;51.15
50364;BME280;36272;59.400;17.982;2022-07-06T20:41:55;100673.31;;;20.57;51.34
50364;BME280;36272;59.400;17.982;2022-07-06T20:46:59;100640.84;;;20.46;51.22
50364;BME280;36272;59.400;17.982;2022-07-06T20:52:01;100662.34;;;20.43;51.34
50364;BME280;36272;59.400;17.982;2022-07-06T20:57:05;100660.34;;;20.29;51.35
50364;BME280;36272;59.400;17.982;2022-07-06T21:02:07;100654.72;;;20.20;51.44
50364;BME280;36272;59.400;17.982;2022-07-06T21:07:09;100663.47;;;20.12;51.21
50364;BME280;36272;59.400;17.982;2022-07-06T21:12:11;100668.16;;;20.06;51.53
50364;BME280;36272;59.400;17.982;2022-07-06T21:17:12;100654.13;;;19.99;51.48
50364;BME280;36272;59.400;17.982;2022-07-06T21:22:14;100668.56;;;19.95;51.77
50364;BME280;36272;59.400;17.982;2022-07-06T21:27:16;100666.44;;;19.86;51.87
50364;BME280;36272;59.400;17.982;2022-07-06T21:32:18;100671.94;;;19.76;51.98
50364;BME280;36272;59.400;17.982;2022-07-06T21:37:19;100673.66;;;19.67;52.02
50364;BME280;36272;59.400;17.982;2022-07-06T21:42:22;100661.53;;;19.59;52.49
50364;BME280;36272;59.400;17.982;2022-07-06T21:47:23;100658.31;;;19.52;52.71
50364;BME280;36272;59.400;17.982;2022-07-06T21:52:28;100646.75;;;19.41;53.13
50364;BME280;36272;59.400;17.982;2022-07-06T21:57:30;100657.09;;;19.34;52.94
50364;BME280;36272;59.400;17.982;2022-07-06T22:02:31;100659.88;;;19.23;53.29
50364;BME280;36272;59.400;17.982;2022-07-06T22:07:36;100654.78;;;19.16;53.51
50364;BME280;36272;59.400;17.982;2022-07-06T22:12:40;100656.75;;;19.11;53.65
50364;BME280;36272;59.400;17.982;2022-07-06T22:17:42;100660.03;;;19.02;53.82
50364;BME280;36272;59.400;17.982;2022-07-06T22:22:49;100647.34;;;18.93;53.92
50364;BME280;36272;59.400;17.982;2022-07-06T22:27:56;100643.84;;;18.82;54.33
50364;BME280;36272;59.400;17.982;2022-07-06T22:32:57;100659.09;;;18.72;54.50
50364;BME280;36272;59.400;17.982;2022-07-06T22:37:59;100662.91;;;18.66;54.76
50364;BME280;36272;59.400;17.982;2022-07-06T22:43:00;100662.41;;;18.59;54.76
50364;BME280;36272;59.400;17.982;2022-07-06T22:48:02;100661.88;;;18.52;54.83
50364;BME280;36272;59.400;17.982;2022-07-06T22:53:04;100663.81;;;18.46;55.02
50364;BME280;36272;59.400;17.982;2022-07-06T22:58:08;100656.78;;;18.40;55.17
50364;BME280;36272;59.400;17.982;2022-07-06T23:03:10;100650.84;;;18.33;54.96
50364;BME280;36272;59.400;17.982;2022-07-06T23:08:17;100638.69;;;18.25;55.53
50364;BME280;36272;59.400;17.982;2022-07-06T23:13:19;100649.78;;;18.18;55.87
50364;BME280;36272;59.400;17.982;2022-07-06T23:18:21;100649.00;;;18.12;56.12
50364;BME280;36272;59.400;17.982;2022-07-06T23:23:23;100659.03;;;18.07;56.45
50364;BME280;36272;59.400;17.982;2022-07-06T23:28:25;100640.09;;;17.96;57.02
50364;BME280;36272;59.400;17.982;2022-07-06T23:33:37;100629.03;;;17.88;57.51
50364;BME280;36272;59.400;17.982;2022-07-06T23:38:39;100648.50;;;17.84;57.37
50364;BME280;36272;59.400;17.982;2022-07-06T23:43:40;100638.78;;;17.78;57.66
50364;BME280;36272;59.400;17.982;2022-07-06T23:48:42;100652.28;;;17.68;57.83
50364;BME280;36272;59.400;17.982;2022-07-06T23:53:44;100656.63;;;17.59;57.79
50364;BME280;36272;59.400;17.982;2022-07-06T23:58:45;100656.06;;;17.51;58.21
